createdAt,value
2022-12-26T00:04:59.170Z,55.76
2022-12-26T00:10:01.480Z,55.92
2022-12-26T00:15:04.598Z,55.68
2022-12-26T00:20:08.595Z,55.52
2022-12-26T00:25:10.830Z,55.70
2022-12-26T00:30:13.179Z,55.97
2022-12-26T00:35:15.309Z,55.98
2022-12-26T00:40:18.091Z,55.94
2022-12-26T00:45:20.214Z,55.97
2022-12-26T00:50:22.329Z,55.77
2022-12-26T00:55:24.507Z,55.88
2022-12-26T01:00:27.062Z,55.86
2022-12-26T01:05:29.319Z,55.66
2022-12-26T01:10:31.584Z,55.82
2022-12-26T01:15:33.871Z,55.65
2022-12-26T01:20:38.199Z,55.59
2022-12-26T01:26:18.133Z,55.39
2022-12-26T01:31:04.302Z,55.61
2022-12-26T01:36:06.513Z,55.73
2022-12-26T01:41:17.788Z,55.83
2022-12-26T01:46:24.518Z,55.49
2022-12-26T01:51:32.314Z,55.44
2022-12-26T01:56:40.992Z,55.56
2022-12-26T02:01:44.250Z,55.83
2022-12-26T02:06:47.200Z,55.74
2022-12-26T02:12:34.361Z,55.55
2022-12-26T02:17:21.300Z,55.59
2022-12-26T02:22:42.211Z,55.65
2022-12-26T02:28:25.434Z,55.84
2022-12-26T02:33:33.207Z,55.87
2022-12-26T02:38:45.891Z,55.71
2022-12-26T02:43:59.868Z,55.67
2022-12-26T02:49:20.289Z,55.78
2022-12-26T02:55:07.388Z,56.04
2022-12-26T03:00:35.225Z,56.03
2022-12-26T03:06:09.111Z,55.93
2022-12-26T03:11:30.339Z,55.87
2022-12-26T03:16:52.519Z,55.79
2022-12-26T03:21:56.454Z,55.78
2022-12-26T03:26:58.747Z,55.65
2022-12-26T03:32:03.235Z,55.53
2022-12-26T03:37:11.694Z,55.51
2022-12-26T03:42:56.188Z,55.61
2022-12-26T03:48:33.506Z,55.79
2022-12-26T03:54:02.787Z,55.51
2022-12-26T03:59:30.153Z,55.43
2022-12-26T04:04:56.099Z,55.47
2022-12-26T04:10:21.843Z,55.74
2022-12-26T04:15:59.299Z,55.72
2022-12-26T04:22:03.241Z,55.58
2022-12-26T04:27:27.246Z,55.34
2022-12-26T04:33:03.409Z,55.62
2022-12-26T04:38:25.351Z,55.82
2022-12-26T04:43:51.677Z,55.85
2022-12-26T04:49:14.289Z,55.62
2022-12-26T04:54:16.825Z,55.66
2022-12-26T04:59:20.029Z,55.80
2022-12-26T05:04:41.004Z,55.95
2022-12-26T05:09:43.152Z,55.86
2022-12-26T05:14:45.380Z,55.85
2022-12-26T05:20:05.892Z,55.84
2022-12-26T05:25:38.843Z,55.66
2022-12-26T05:30:41.256Z,55.69
2022-12-26T05:35:43.584Z,55.57
2022-12-26T05:40:45.664Z,55.41
2022-12-26T05:45:47.927Z,55.66
2022-12-26T05:50:50.249Z,55.84
2022-12-26T05:55:52.359Z,55.96
2022-12-26T06:01:06.752Z,55.74
2022-12-26T06:06:09.839Z,55.88
2022-12-26T06:11:13.620Z,55.75
2022-12-26T06:16:16.694Z,55.65
2022-12-26T06:21:20.551Z,55.76
2022-12-26T06:26:22.711Z,55.97
2022-12-26T06:31:25.197Z,56.10
2022-12-26T06:36:29.043Z,56.05
2022-12-26T06:41:32.009Z,55.97
2022-12-26T06:46:34.225Z,55.92
2022-12-26T06:51:36.387Z,55.75
2022-12-26T06:56:38.737Z,55.75
2022-12-26T07:01:41.048Z,55.81
2022-12-26T07:06:43.514Z,55.97
2022-12-26T07:11:48.271Z,56.20
2022-12-26T07:16:50.509Z,56.40
2022-12-26T07:21:52.846Z,56.18
2022-12-26T07:26:55.220Z,56.16
2022-12-26T07:31:58.386Z,56.08
2022-12-26T07:37:00.548Z,55.79
2022-12-26T07:42:02.652Z,56.00
2022-12-26T07:47:05.187Z,55.74
2022-12-26T07:52:07.292Z,55.95
2022-12-26T07:57:46.229Z,55.75
2022-12-26T08:02:32.405Z,55.72
2022-12-26T08:07:34.734Z,55.72
2022-12-26T08:12:37.547Z,55.76
2022-12-26T08:17:39.760Z,55.93
2022-12-26T08:22:41.902Z,55.87
2022-12-26T08:27:44.212Z,55.73
2022-12-26T08:32:46.768Z,55.76
2022-12-26T08:37:48.999Z,55.94
2022-12-26T08:43:12.333Z,55.92
2022-12-26T08:48:15.545Z,55.79
2022-12-26T08:53:17.582Z,55.87
2022-12-26T08:58:19.851Z,55.66
2022-12-26T09:03:22.432Z,55.95
2022-12-26T09:08:24.508Z,55.85
2022-12-26T09:13:26.639Z,55.82
2022-12-26T09:18:29.412Z,55.74
2022-12-26T09:23:31.811Z,55.87
2022-12-26T09:28:34.536Z,55.97
2022-12-26T09:33:37.963Z,56.01
2022-12-26T09:38:40.106Z,55.97
2022-12-26T09:44:00.329Z,55.68
2022-12-26T09:49:13.988Z,55.65
2022-12-26T09:54:25.717Z,55.78
2022-12-26T09:59:29.843Z,55.72
2022-12-26T10:04:32.031Z,55.56
2022-12-26T10:09:51.581Z,55.71
2022-12-26T10:15:03.323Z,55.62
2022-12-26T10:20:21.955Z,55.61
2022-12-26T10:25:34.050Z,55.56
2022-12-26T10:30:42.310Z,55.27
2022-12-26T10:35:46.253Z,55.27
2022-12-26T10:40:52.574Z,55.18
2022-12-26T10:46:03.711Z,55.42
2022-12-26T10:51:06.058Z,55.48
2022-12-26T10:56:13.253Z,55.16
2022-12-26T11:01:37.959Z,55.16
2022-12-26T11:06:43.118Z,55.08
2022-12-26T11:11:51.726Z,55.14
2022-12-26T11:16:54.372Z,55.43
2022-12-26T11:22:20.597Z,55.33
2022-12-26T11:27:24.510Z,55.34
2022-12-26T11:32:28.263Z,55.23
2022-12-26T11:37:34.746Z,55.13
2022-12-26T11:42:37.523Z,55.24
2022-12-26T11:47:45.670Z,55.00
2022-12-26T11:52:56.873Z,54.88
2022-12-26T11:58:06.744Z,54.88
2022-12-26T12:03:16.655Z,54.99
2022-12-26T12:08:24.955Z,55.18
2022-12-26T12:13:45.563Z,55.18
2022-12-26T12:19:01.372Z,54.98
2022-12-26T12:24:15.494Z,54.94
2022-12-26T12:29:30.809Z,54.92
2022-12-26T12:34:58.754Z,54.80
2022-12-26T12:40:45.956Z,54.76
2022-12-26T12:46:04.095Z,54.70
2022-12-26T12:51:24.638Z,54.83
2022-12-26T12:56:50.203Z,54.89
2022-12-26T13:01:57.968Z,54.76
2022-12-26T13:07:08.986Z,54.65
2022-12-26T13:12:38.880Z,54.68
2022-12-26T13:17:46.724Z,54.76
2022-12-26T13:23:15.699Z,54.87
2022-12-26T13:28:29.312Z,54.90
2022-12-26T13:33:32.566Z,54.81
2022-12-26T13:38:56.361Z,54.94
2022-12-26T13:44:24.152Z,54.87
2022-12-26T13:49:40.114Z,54.79
2022-12-26T13:54:48.264Z,54.74
2022-12-26T14:00:12.821Z,54.66
2022-12-26T14:05:53.645Z,54.64
2022-12-26T14:11:06.422Z,54.58
2022-12-26T14:16:27.806Z,54.64
2022-12-26T14:22:00.769Z,54.39
2022-12-26T14:27:08.740Z,54.49
2022-12-26T14:32:41.772Z,54.46
2022-12-26T14:37:59.049Z,54.68
2022-12-26T14:43:11.318Z,54.72
2022-12-26T14:48:16.372Z,54.59
2022-12-26T14:53:27.655Z,54.64
2022-12-26T14:58:44.003Z,54.57
2022-12-26T15:03:57.928Z,54.51
2022-12-26T15:09:21.792Z,54.55
2022-12-26T15:14:58.574Z,54.55
2022-12-26T15:20:31.575Z,54.52
2022-12-26T15:25:43.818Z,54.52
2022-12-26T15:31:12.028Z,54.66
2022-12-26T15:36:28.828Z,54.50
2022-12-26T15:42:02.816Z,54.75
2022-12-26T15:47:14.968Z,54.61
2022-12-26T15:52:20.212Z,54.58
2022-12-26T15:57:51.170Z,54.93
2022-12-26T16:03:14.778Z,55.06
2022-12-26T16:08:53.733Z,55.19
2022-12-26T16:13:58.004Z,55.05
2022-12-26T16:19:22.942Z,55.13
2022-12-26T16:24:26.997Z,55.15
2022-12-26T16:29:31.047Z,55.48
2022-12-26T16:34:36.916Z,55.46
2022-12-26T16:39:39.092Z,55.39
2022-12-26T16:44:44.572Z,55.31
2022-12-26T16:49:47.339Z,55.33
2022-12-26T16:54:49.614Z,54.94
2022-12-26T16:59:57.695Z,55.07
2022-12-26T17:05:05.119Z,54.84
2022-12-26T17:10:13.823Z,54.77
2022-12-26T17:15:25.470Z,54.85
2022-12-26T17:20:35.639Z,54.94
2022-12-26T17:25:37.850Z,54.89
2022-12-26T17:30:43.885Z,54.71
2022-12-26T17:41:17.001Z,54.68
2022-12-26T17:46:19.493Z,54.93
2022-12-26T17:51:21.858Z,54.87
2022-12-26T17:56:27.377Z,54.81
2022-12-26T18:01:29.721Z,54.75
2022-12-26T18:06:32.055Z,54.58
2022-12-26T18:11:34.319Z,54.62
2022-12-26T18:16:36.536Z,54.35
2022-12-26T18:21:38.850Z,54.41
2022-12-26T18:26:41.259Z,54.31
2022-12-26T18:31:43.376Z,54.57
2022-12-26T18:36:47.042Z,54.62
2022-12-26T18:41:49.260Z,54.57
2022-12-26T18:46:52.019Z,54.52
2022-12-26T18:51:54.150Z,54.39
2022-12-26T18:56:56.412Z,54.49
2022-12-26T19:01:58.700Z,54.32
2022-12-26T19:07:01.033Z,54.27
2022-12-26T19:12:03.267Z,54.31
2022-12-26T19:17:05.932Z,54.42
2022-12-26T19:22:08.104Z,54.52
2022-12-26T19:27:10.418Z,54.45
2022-12-26T19:32:12.559Z,54.41
2022-12-26T19:37:14.933Z,54.40
2022-12-26T19:42:17.657Z,54.33
2022-12-26T19:47:20.327Z,54.17
2022-12-26T19:52:22.448Z,54.23
2022-12-26T19:57:24.567Z,54.21
2022-12-26T20:02:27.231Z,54.40
2022-12-26T20:07:29.568Z,54.45
2022-12-26T20:12:31.980Z,54.27
2022-12-26T20:17:34.392Z,54.40
2022-12-26T20:22:36.695Z,54.19
2022-12-26T20:27:41.051Z,54.11
2022-12-26T20:32:46.839Z,54.13
2022-12-26T20:37:49.055Z,53.98
2022-12-26T20:42:51.225Z,54.07
2022-12-26T20:47:53.391Z,54.18
2022-12-26T20:52:55.554Z,54.42
2022-12-26T20:57:57.695Z,54.24
2022-12-26T21:03:00.414Z,54.32
2022-12-26T21:08:02.732Z,54.27
2022-12-26T21:13:04.975Z,54.28
2022-12-26T21:18:07.227Z,54.17
2022-12-26T21:23:09.374Z,54.21
2022-12-26T21:28:11.712Z,54.10
2022-12-26T21:33:14.050Z,54.12
2022-12-26T21:38:16.416Z,54.33
2022-12-26T21:43:18.455Z,54.31
2022-12-26T21:48:20.545Z,54.19
2022-12-26T21:53:22.772Z,54.22
2022-12-26T21:58:24.954Z,54.26
2022-12-26T22:03:45.508Z,54.14
2022-12-26T22:08:47.718Z,54.13
2022-12-26T22:13:49.933Z,54.09
2022-12-26T22:18:52.198Z,54.14
2022-12-26T22:23:54.896Z,54.14
2022-12-26T22:28:57.992Z,54.31
2022-12-26T22:34:03.990Z,54.24
2022-12-26T22:39:06.216Z,54.24
2022-12-26T22:44:08.591Z,54.28
2022-12-26T22:49:10.948Z,54.27
2022-12-26T22:54:13.137Z,53.96
2022-12-26T22:59:33.929Z,54.11
2022-12-26T23:04:37.871Z,53.98
2022-12-26T23:09:40.170Z,54.35
2022-12-26T23:14:42.374Z,54.24
2022-12-26T23:20:10.207Z,54.34
2022-12-26T23:25:12.292Z,54.32
2022-12-26T23:30:20.444Z,54.38
2022-12-26T23:35:24.082Z,54.29
2022-12-26T23:40:26.202Z,54.20
2022-12-26T23:45:28.192Z,54.33
2022-12-26T23:50:30.359Z,54.32
2022-12-26T23:55:33.639Z,54.40
